Time;durP1;ratioP1;P1;durP2;ratioP2;P2;SDS_P1;SDS_P2;PMS_P1;PMS_P2;Temp;Humidity;BMP_temperature;BMP_pressure;BME280_temperature;BME280_humidity;BME280_pressure;Samples;Min_cycle;Max_cycle;Signal;HPM_P1;HPM_P2
2020/12/17 00:00:47;;;;;;;6.05;5.15;;;16.50;61.40;;;;;;4861691;29;20078;-73
2020/12/17 00:03:12;;;;;;;6.53;5.80;;;16.50;61.40;;;;;;4844250;29;20271;-74
2020/12/17 00:05:38;;;;;;;6.57;5.50;;;16.50;61.40;;;;;;4843834;29;20057;-74
2020/12/17 00:08:04;;;;;;;7.40;5.78;;;16.50;61.30;;;;;;4850396;29;20129;-73
2020/12/17 00:10:30;;;;;;;6.20;5.55;;;16.50;61.30;;;;;;4861251;29;20539;-74
2020/12/17 00:12:56;;;;;;;7.47;5.57;;;16.50;61.20;;;;;;4861450;29;20475;-74
2020/12/17 00:15:22;;;;;;;5.95;5.22;;;16.50;61.10;;;;;;4849480;29;20122;-74
2020/12/17 00:17:52;;;;;;;7.13;5.60;;;16.50;61.10;;;;;;4844721;29;20046;-73
2020/12/17 00:20:22;;;;;;;6.65;5.47;;;16.40;61.00;;;;;;4844588;29;20084;-73
2020/12/17 00:23:08;;;;;;;7.35;5.30;;;16.40;61.00;;;;;;4813965;29;20054;-73
2020/12/17 00:25:34;;;;;;;7.72;5.70;;;16.40;61.10;;;;;;4843459;29;20113;-73
2020/12/17 00:28:00;;;;;;;6.72;5.60;;;16.40;61.10;;;;;;4843792;29;20130;-73
2020/12/17 00:30:45;;;;;;;7.30;5.75;;;16.40;61.10;;;;;;4830011;29;20095;-74
2020/12/17 00:33:31;;;;;;;7.53;6.20;;;16.40;61.20;;;;;;4829701;29;20050;-73
2020/12/17 00:35:57;;;;;;;6.35;5.75;;;16.40;61.20;;;;;;4843534;29;20144;-73
2020/12/17 00:38:23;;;;;;;5.97;5.05;;;16.40;61.20;;;;;;4847215;29;20077;-73
2020/12/17 00:40:49;;;;;;;7.13;5.53;;;16.40;61.10;;;;;;4846897;29;20053;-73
2020/12/17 00:43:14;;;;;;;6.43;5.32;;;16.40;61.20;;;;;;4846547;29;20056;-74
2020/12/17 00:45:40;;;;;;;6.55;5.85;;;16.40;61.20;;;;;;4846852;29;20058;-73
2020/12/17 00:48:26;;;;;;;6.22;5.63;;;16.40;61.20;;;;;;4832636;29;20448;-73
2020/12/17 00:50:52;;;;;;;6.90;5.78;;;16.40;61.20;;;;;;4855522;29;20056;-73
2020/12/17 00:53:18;;;;;;;7.43;5.55;;;16.40;61.10;;;;;;4849207;29;20459;-74
2020/12/17 00:55:46;;;;;;;6.43;5.68;;;16.40;61.10;;;;;;4846630;29;20118;-74
2020/12/17 00:58:32;;;;;;;6.80;5.57;;;16.40;61.10;;;;;;4833063;29;20049;-74
2020/12/17 01:00:58;;;;;;;7.10;5.47;;;16.30;61.20;;;;;;4846517;29;20050;-73
2020/12/17 01:03:24;;;;;;;5.60;5.00;;;16.30;61.20;;;;;;4846380;29;20053;-73
2020/12/17 01:05:50;;;;;;;6.30;5.35;;;16.30;61.30;;;;;;4846476;29;20462;-73
2020/12/17 01:08:15;;;;;;;6.88;5.50;;;16.30;61.40;;;;;;4845987;29;20399;-74
2020/12/17 01:10:41;;;;;;;6.45;5.47;;;16.30;61.40;;;;;;4846981;29;20123;-74
2020/12/17 01:13:07;;;;;;;6.97;5.13;;;16.30;61.40;;;;;;4846172;29;20050;-74
2020/12/17 01:15:33;;;;;;;5.35;4.82;;;16.30;61.40;;;;;;4846069;29;20049;-73
2020/12/17 01:17:59;;;;;;;6.22;4.80;;;16.30;61.40;;;;;;4847264;29;20114;-73
2020/12/17 01:20:44;;;;;;;6.30;5.15;;;16.30;61.40;;;;;;4849489;29;20050;-73
2020/12/17 01:23:10;;;;;;;6.50;5.70;;;16.30;61.40;;;;;;4846043;29;20190;-74
2020/12/17 01:25:36;;;;;;;5.78;5.07;;;16.30;61.30;;;;;;4846369;29;20120;-73
2020/12/17 01:28:02;;;;;;;5.35;4.85;;;16.30;61.30;;;;;;4846001;29;20054;-74
2020/12/17 01:30:27;;;;;;;5.47;4.68;;;16.30;61.30;;;;;;4847964;29;20049;-73
2020/12/17 01:32:53;;;;;;;5.85;5.07;;;16.30;61.30;;;;;;4845936;29;20068;-74
2020/12/17 01:35:39;;;;;;;8.10;5.63;;;16.20;61.30;;;;;;4845709;29;20477;-74
2020/12/17 01:38:05;;;;;;;6.13;4.70;;;16.30;61.40;;;;;;4858835;29;20073;-74
2020/12/17 01:40:50;;;;;;;5.57;5.07;;;16.20;61.40;;;;;;4844901;29;20053;-74
2020/12/17 01:43:16;;;;;;;5.40;4.90;;;16.20;61.30;;;;;;4854686;29;20053;-73
2020/12/17 01:45:42;;;;;;;5.13;4.63;;;16.20;61.30;;;;;;4862476;29;20156;-73
2020/12/17 01:48:11;;;;;;;6.57;4.97;;;16.20;61.30;;;;;;4863083;29;20065;-73
2020/12/17 01:50:37;;;;;;;6.32;4.97;;;16.20;61.30;;;;;;4850974;29;20045;-73
2020/12/17 01:53:04;;;;;;;5.85;5.10;;;16.20;61.30;;;;;;4845628;29;20057;-74
2020/12/17 01:55:31;;;;;;;5.32;4.70;;;16.20;61.30;;;;;;4845797;29;20456;-74
2020/12/17 01:58:22;;;;;;;5.65;4.95;;;16.20;61.40;;;;;;4840157;29;20050;-73
2020/12/17 02:00:53;;;;;;;4.97;4.47;;;16.20;61.30;;;;;;4861543;29;20045;-73
2020/12/17 02:03:20;;;;;;;5.22;4.45;;;16.20;61.30;;;;;;4863970;29;20046;-73
2020/12/17 02:05:48;;;;;;;7.03;4.53;;;16.20;61.40;;;;;;4850149;29;20089;-74
2020/12/17 02:08:17;;;;;;;4.72;4.22;;;16.20;61.40;;;;;;4864138;29;20056;-73
2020/12/17 02:10:44;;;;;;;5.15;4.65;;;16.20;61.40;;;;;;4852603;29;20078;-75
2020/12/17 02:13:11;;;;;;;5.00;4.22;;;16.20;61.40;;;;;;4851905;29;20106;-73
2020/12/17 02:15:57;;;;;;;4.90;4.18;;;16.20;61.50;;;;;;4848572;29;20049;-73
2020/12/17 02:18:23;;;;;;;4.65;4.07;;;16.20;61.60;;;;;;4863532;29;20049;-73
2020/12/17 02:20:48;;;;;;;4.78;4.28;;;16.20;61.60;;;;;;4863541;29;20110;-75
2020/12/17 02:23:36;;;;;;;4.28;3.75;;;16.20;61.70;;;;;;4862589;29;20049;-73
2020/12/17 02:26:02;;;;;;;5.60;4.32;;;16.20;61.70;;;;;;4863563;29;20082;-73
2020/12/17 02:28:48;;;;;;;4.47;3.60;;;16.20;61.80;;;;;;4862927;29;20387;-73
2020/12/17 02:31:13;;;;;;;4.15;3.50;;;16.10;61.80;;;;;;4859839;29;20061;-73
2020/12/17 02:33:39;;;;;;;4.38;3.30;;;16.10;61.80;;;;;;4848277;29;20083;-74
2020/12/17 02:36:05;;;;;;;4.45;3.47;;;16.10;61.80;;;;;;4848350;29;20041;-74
2020/12/17 02:38:50;;;;;;;4.07;3.47;;;16.10;61.80;;;;;;4848433;29;20119;-74
2020/12/17 02:41:37;;;;;;;4.03;3.63;;;16.10;61.80;;;;;;4845115;29;20084;-73
2020/12/17 02:44:03;;;;;;;5.32;4.03;;;16.10;61.80;;;;;;4846314;29;20094;-74
2020/12/17 02:46:28;;;;;;;3.63;3.13;;;16.10;61.80;;;;;;4844805;29;20062;-72
2020/12/17 02:49:15;;;;;;;4.10;3.58;;;16.10;61.80;;;;;;4857652;29;20049;-73
2020/12/17 02:51:40;;;;;;;4.28;3.13;;;16.10;61.80;;;;;;4844806;29;20155;-73
2020/12/17 02:54:26;;;;;;;4.70;3.63;;;16.10;62.40;;;;;;4813916;29;20097;-73
2020/12/17 02:56:52;;;;;;;4.40;3.30;;;16.10;61.80;;;;;;4826486;29;20085;-74
2020/12/17 02:59:18;;;;;;;3.70;3.25;;;16.10;61.80;;;;;;4828506;29;20138;-73
2020/12/17 03:01:44;;;;;;;4.05;3.45;;;16.10;61.80;;;;;;4854670;29;20056;-75
2020/12/17 03:04:09;;;;;;;3.88;3.17;;;16.10;61.80;;;;;;4862832;29;20080;-74
2020/12/17 03:06:35;;;;;;;3.55;3.20;;;16.10;61.70;;;;;;4860940;29;20049;-73
2020/12/17 03:09:04;;;;;;;3.80;3.17;;;16.10;61.70;;;;;;4861386;29;20105;-74
2020/12/17 03:11:29;;;;;;;4.43;3.35;;;16.10;61.70;;;;;;4852864;29;20489;-73
2020/12/17 03:13:55;;;;;;;4.68;4.18;;;16.10;61.70;;;;;;4844017;29;20045;-74
2020/12/17 03:16:21;;;;;;;4.07;3.67;;;16.10;61.70;;;;;;4844342;29;20456;-73
2020/12/17 03:18:47;;;;;;;3.97;3.55;;;16.10;61.70;;;;;;4851362;29;20090;-73
2020/12/17 03:21:13;;;;;;;3.97;3.42;;;16.10;61.80;;;;;;4863231;29;20148;-74
2020/12/17 03:23:39;;;;;;;4.18;3.65;;;16.10;61.80;;;;;;4862872;29;20076;-73
2020/12/17 03:26:05;;;;;;;3.78;3.40;;;16.00;61.70;;;;;;4863571;29;20080;-73
2020/12/17 03:28:31;;;;;;;4.22;3.20;;;16.00;61.70;;;;;;4868614;29;20192;-73
2020/12/17 03:30:57;;;;;;;4.05;3.53;;;16.00;61.70;;;;;;4863347;29;20503;-74
2020/12/17 03:33:23;;;;;;;3.90;3.50;;;16.00;61.80;;;;;;4862002;29;20058;-74
2020/12/17 03:35:48;;;;;;;3.97;3.58;;;16.00;61.80;;;;;;4862223;29;20061;-73
2020/12/17 03:38:14;;;;;;;4.70;3.42;;;16.00;61.80;;;;;;4862865;29;20340;-73
2020/12/17 03:40:40;;;;;;;4.47;3.10;;;16.00;61.90;;;;;;4862452;29;20053;-74
2020/12/17 03:43:06;;;;;;;4.53;3.42;;;16.00;61.90;;;;;;4862368;29;20355;-73
2020/12/17 03:45:32;;;;;;;4.47;3.60;;;16.00;61.90;;;;;;4862499;29;20049;-74
2020/12/17 03:48:17;;;;;;;4.40;3.20;;;16.00;62.00;;;;;;4861586;29;20046;-73
2020/12/17 03:51:04;;;;;;;3.30;3.00;;;16.00;62.00;;;;;;4856275;29;20065;-73
2020/12/17 03:53:29;;;;;;;4.78;3.80;;;16.00;62.10;;;;;;4859941;29;20056;-74
2020/12/17 03:55:55;;;;;;;3.28;2.95;;;16.00;62.10;;;;;;4862479;29;20057;-74
2020/12/17 03:58:41;;;;;;;4.30;3.28;;;16.00;62.20;;;;;;4861655;29;20080;-74
2020/12/17 04:01:27;;;;;;;4.65;3.25;;;16.00;62.20;;;;;;4879070;29;20069;-74
2020/12/17 04:03:52;;;;;;;4.50;3.42;;;15.90;62.10;;;;;;4862186;29;20077;-73
2020/12/17 04:06:38;;;;;;;5.18;3.40;;;15.90;62.10;;;;;;4874312;29;20145;-73
2020/12/17 04:09:04;;;;;;;5.28;3.67;;;15.90;62.10;;;;;;4861976;29;20124;-74
2020/12/17 04:11:30;;;;;;;4.28;3.47;;;15.90;62.10;;;;;;4863663;29;20045;-73
2020/12/17 04:13:56;;;;;;;4.15;3.75;;;15.90;62.10;;;;;;4865888;29;20125;-73
2020/12/17 04:16:42;;;;;;;3.72;3.33;;;15.90;62.10;;;;;;4877871;29;20053;-73
2020/12/17 04:19:07;;;;;;;4.32;3.75;;;15.90;62.10;;;;;;4864935;29;20531;-73
2020/12/17 04:21:33;;;;;;;4.43;3.95;;;15.90;62.10;;;;;;4865625;29;20061;-74
2020/12/17 04:23:59;;;;;;;4.80;3.72;;;16.00;62.10;;;;;;4866546;29;20432;-73
2020/12/17 04:26:25;;;;;;;3.90;3.40;;;16.00;62.70;;;;;;4862201;29;20050;-73
2020/12/17 04:28:50;;;;;;;5.13;3.75;;;16.00;62.10;;;;;;4846664;29;20054;-74
2020/12/17 04:31:16;;;;;;;4.88;3.90;;;15.90;62.00;;;;;;4846913;29;20054;-74
2020/12/17 04:33:42;;;;;;;3.83;3.42;;;16.00;62.10;;;;;;4848185;29;20503;-74
2020/12/17 04:36:28;;;;;;;4.50;3.42;;;15.90;62.00;;;;;;4852348;29;20094;-74
2020/12/17 04:38:54;;;;;;;3.55;3.25;;;15.90;62.10;;;;;;4858521;29;20049;-75
2020/12/17 04:41:20;;;;;;;4.85;3.80;;;15.90;62.10;;;;;;4847637;29;20056;-73
2020/12/17 04:43:47;;;;;;;4.30;3.55;;;15.90;62.10;;;;;;4847876;29;20045;-74
2020/12/17 04:46:35;;;;;;;4.75;3.55;;;15.90;62.10;;;;;;4833758;29;20133;-73
2020/12/17 04:49:03;;;;;;;4.70;3.67;;;15.90;62.10;;;;;;4857959;29;20117;-73
2020/12/17 04:51:55;;;;;;;4.20;3.55;;;15.90;62.20;;;;;;4850305;29;20053;-73
2020/12/17 04:54:41;;;;;;;5.47;3.80;;;15.90;62.20;;;;;;4846193;29;20083;-73
2020/12/17 04:57:27;;;;;;;4.03;3.60;;;15.90;62.30;;;;;;4848007;29;20502;-73
2020/12/17 04:59:55;;;;;;;4.88;3.83;;;15.90;62.40;;;;;;4864465;29;20467;-73
2020/12/17 05:02:22;;;;;;;4.68;4.00;;;15.90;62.40;;;;;;4855467;29;20344;-74
2020/12/17 05:04:49;;;;;;;4.47;3.83;;;15.90;62.40;;;;;;4855768;29;20045;-73
2020/12/17 05:07:23;;;;;;;4.28;3.60;;;15.90;62.50;;;;;;4853619;29;20468;-73
2020/12/17 05:09:50;;;;;;;4.90;4.03;;;15.90;62.50;;;;;;4846520;29;20074;-73
2020/12/17 05:12:16;;;;;;;4.57;3.70;;;15.90;62.50;;;;;;4846912;29;20064;-73
2020/12/17 05:14:43;;;;;;;4.53;4.00;;;15.80;62.50;;;;;;4855564;29;20082;-73
2020/12/17 05:17:10;;;;;;;5.68;4.13;;;15.90;62.60;;;;;;4846160;29;20104;-74
2020/12/17 05:19:57;;;;;;;4.32;3.70;;;15.90;62.60;;;;;;4858094;29;20065;-74
2020/12/17 05:22:24;;;;;;;4.07;3.60;;;15.90;62.60;;;;;;4864846;29;20045;-73
2020/12/17 05:25:10;;;;;;;4.47;3.95;;;15.90;62.50;;;;;;4876962;29;20372;-73
2020/12/17 05:27:36;;;;;;;4.75;3.80;;;15.90;62.60;;;;;;4878309;29;20045;-73
2020/12/17 05:30:04;;;;;;;4.78;4.28;;;15.80;62.50;;;;;;4882353;29;20059;-73
2020/12/17 05:32:30;;;;;;;5.95;4.20;;;15.80;62.40;;;;;;4864346;29;20045;-73
2020/12/17 05:34:56;;;;;;;4.78;4.18;;;15.90;62.50;;;;;;4864575;29;20049;-74
2020/12/17 05:37:24;;;;;;;4.70;4.15;;;15.80;62.40;;;;;;4864462;29;20053;-74
2020/12/17 05:39:50;;;;;;;4.45;3.88;;;15.80;62.30;;;;;;4853488;29;20057;-75
2020/12/17 05:42:16;;;;;;;5.20;4.20;;;15.80;62.30;;;;;;4864058;29;20045;-73
2020/12/17 05:44:42;;;;;;;6.30;4.72;;;15.80;62.30;;;;;;4864365;29;20137;-74
2020/12/17 05:47:13;;;;;;;13.32;4.50;;;15.80;62.30;;;;;;4866119;29;20113;-71
2020/12/17 05:49:59;;;;;;;11.70;4.15;;;15.80;62.40;;;;;;4875157;29;20117;-73
2020/12/17 05:52:45;;;;;;;4.03;3.28;;;15.80;62.50;;;;;;4863021;29;20049;-73
2020/12/17 05:55:12;;;;;;;5.07;3.20;;;15.80;62.50;;;;;;4863152;29;20098;-75
2020/12/17 05:57:51;;;;;;;6.85;3.20;;;15.90;62.60;;;;;;4863764;29;20064;-75
2020/12/17 06:00:20;;;;;;;5.30;3.40;;;15.90;62.50;;;;;;4863890;29;20047;-73
2020/12/17 06:02:46;;;;;;;7.43;3.05;;;16.00;62.60;;;;;;4863350;29;20506;-74
2020/12/17 06:05:13;;;;;;;6.05;3.10;;;16.00;62.70;;;;;;4863665;29;20120;-75
2020/12/17 06:07:47;;;;;;;5.38;2.95;;;16.00;62.80;;;;;;4864087;29;20081;-72
2020/12/17 06:10:21;;;;;;;6.47;2.97;;;16.00;62.60;;;;;;4863143;29;20060;-75
2020/12/17 06:12:49;;;;;;;5.93;2.22;;;16.00;62.50;;;;;;4862692;29;20047;-74
2020/12/17 06:15:25;;;;;;;5.45;3.08;;;16.00;62.40;;;;;;4862355;29;20045;-72
2020/12/17 06:17:56;;;;;;;7.45;2.42;;;16.10;62.70;;;;;;4862545;29;20045;-72
2020/12/17 06:20:43;;;;;;;13.45;2.33;;;16.10;63.00;;;;;;4837975;29;20117;-72
2020/12/17 06:23:13;;;;;;;9.48;2.35;;;16.20;63.20;;;;;;4845419;29;20064;-72
2020/12/17 06:25:39;;;;;;;5.07;2.00;;;16.30;63.50;;;;;;4859141;29;20141;-72
2020/12/17 06:28:17;;;;;;;7.10;1.92;;;16.40;63.60;;;;;;4845001;29;20052;-72
2020/12/17 06:31:04;;;;;;;14.35;2.13;;;16.60;63.60;;;;;;4834584;29;20122;-72
2020/12/17 06:33:50;;;;;;;7.75;1.73;;;16.70;63.60;;;;;;4847507;29;20050;-72
2020/12/17 06:36:22;;;;;;;5.57;1.33;;;16.80;63.60;;;;;;4845025;29;20057;-72
2020/12/17 06:39:07;;;;;;;4.82;2.00;;;16.90;63.70;;;;;;4821108;29;20463;-72
2020/12/17 06:41:34;;;;;;;4.82;1.50;;;16.90;63.50;;;;;;4830367;29;20121;-72
2020/12/17 06:44:00;;;;;;;6.15;1.40;;;16.90;63.50;;;;;;4844241;29;20061;-71
2020/12/17 06:46:36;;;;;;;5.72;1.40;;;17.00;63.50;;;;;;4845843;29;20455;-72
2020/12/17 06:49:04;;;;;;;8.50;1.55;;;17.00;63.60;;;;;;4845242;29;20528;-70
2020/12/17 06:52:07;;;;;;;4.35;1.65;;;17.00;63.40;;;;;;4826981;29;20054;-72
2020/12/17 06:54:54;;;;;;;6.22;1.63;;;17.10;63.80;;;;;;4844560;29;20049;-71
2020/12/17 06:57:21;;;;;;;8.32;1.35;;;17.10;63.70;;;;;;4862781;29;20054;-72
2020/12/17 07:00:08;;;;;;;3.83;1.45;;;17.10;63.80;;;;;;4856615;29;20064;-73
2020/12/17 07:02:41;;;;;;;6.57;1.55;;;17.20;64.20;;;;;;4860240;29;20045;-72
2020/12/17 07:05:36;;;;;;;5.32;1.40;;;17.20;64.00;;;;;;4832708;29;20053;-72
2020/12/17 07:08:03;;;;;;;3.22;1.42;;;17.20;64.00;;;;;;4844499;29;20042;-72
2020/12/17 07:10:30;;;;;;;5.95;1.63;;;17.30;64.00;;;;;;4844906;29;20050;-72
2020/12/17 07:13:40;;;;;;;2.22;1.00;;;17.30;64.00;;;;;;4831026;29;20379;-77
2020/12/17 07:16:26;;;;;;;3.88;1.05;;;17.40;64.50;;;;;;4852393;29;20466;-76
2020/12/17 07:19:30;;;;;;;2.58;1.48;;;17.40;63.80;;;;;;4853159;29;20054;-77
2020/12/17 07:22:00;;;;;;;2.53;1.20;;;17.50;64.00;;;;;;4848767;29;20057;-76
2020/12/17 07:24:32;;;;;;;3.97;1.10;;;17.50;63.90;;;;;;4862684;29;20053;-76
2020/12/17 07:27:13;;;;;;;2.95;1.15;;;17.50;63.80;;;;;;4862969;29;20056;-76
2020/12/17 07:29:43;;;;;;;4.10;1.25;;;17.60;63.90;;;;;;4862107;29;20092;-76
2020/12/17 07:32:27;;;;;;;4.80;1.52;;;17.60;63.70;;;;;;4867052;29;20354;-77
2020/12/17 07:34:56;;;;;;;3.55;1.23;;;17.70;63.80;;;;;;4881918;29;20216;-77
2020/12/17 07:37:44;;;;;;;5.18;1.05;;;17.70;63.70;;;;;;4881093;29;20467;-77
2020/12/17 07:40:33;;;;;;;3.58;1.30;;;17.70;63.80;;;;;;4893125;29;20431;-77
2020/12/17 07:43:20;;;;;;;7.68;1.25;;;17.70;63.60;;;;;;4878908;29;20419;-77
2020/12/17 07:45:47;;;;;;;8.48;1.27;;;17.80;63.50;;;;;;4875290;29;20507;-77
2020/12/17 07:48:38;;;;;;;2.67;1.30;;;17.80;63.50;;;;;;4879766;29;20113;-77
2020/12/17 07:51:13;;;;;;;5.90;1.50;;;17.80;63.70;;;;;;4864895;29;20112;-77
2020/12/17 07:54:03;;;;;;;5.65;1.20;;;17.80;63.60;;;;;;4872258;29;20068;-78
2020/12/17 07:56:29;;;;;;;5.32;1.55;;;17.80;63.50;;;;;;4857445;29;20061;-78
2020/12/17 07:58:55;;;;;;;4.75;1.50;;;17.80;63.40;;;;;;4864968;29;20068;-77
2020/12/17 08:01:21;;;;;;;6.35;1.70;;;17.80;63.40;;;;;;4866265;29;20042;-78
2020/12/17 08:03:52;;;;;;;9.02;1.80;;;17.80;63.40;;;;;;4865703;29;20416;-78
2020/12/17 08:06:20;;;;;;;6.35;1.70;;;17.70;63.30;;;;;;4866028;29;20176;-78
2020/12/17 08:08:46;;;;;;;4.15;1.55;;;17.70;63.20;;;;;;4870996;29;20059;-78
2020/12/17 08:11:12;;;;;;;5.68;1.40;;;17.70;63.50;;;;;;4868834;29;20046;-78
2020/12/17 08:13:38;;;;;;;4.35;1.80;;;17.70;63.20;;;;;;4884825;29;20116;-78
2020/12/17 08:16:24;;;;;;;4.95;2.17;;;17.70;63.10;;;;;;4882329;29;20407;-78
2020/12/17 08:19:10;;;;;;;3.58;1.80;;;17.70;63.10;;;;;;4884581;29;20060;-78
2020/12/17 08:21:37;;;;;;;7.32;1.88;;;17.70;63.10;;;;;;4857871;29;20046;-78
2020/12/17 08:24:09;;;;;;;5.20;1.73;;;17.70;63.10;;;;;;4857708;29;20130;-77
2020/12/17 08:26:55;;;;;;;9.30;1.95;;;17.70;63.10;;;;;;4894167;29;20057;-77
2020/12/17 08:29:24;;;;;;;5.43;2.03;;;17.70;63.10;;;;;;4859676;29;20069;-77
2020/12/17 08:31:51;;;;;;;7.90;2.35;;;17.70;63.10;;;;;;4865371;29;20050;-77
2020/12/17 08:34:17;;;;;;;8.32;2.53;;;17.70;63.00;;;;;;4880858;29;20151;-78
2020/12/17 08:36:43;;;;;;;8.13;2.33;;;17.70;63.00;;;;;;4869018;29;20105;-77
2020/12/17 08:39:30;;;;;;;7.00;2.40;;;17.70;63.00;;;;;;4875788;29;20057;-77
2020/12/17 08:42:17;;;;;;;8.05;2.63;;;17.70;63.10;;;;;;4867647;29;20470;-77
2020/12/17 08:45:14;;;;;;;9.63;2.70;;;17.70;63.00;;;;;;4885855;29;20080;-78
2020/12/17 08:47:42;;;;;;;11.80;2.80;;;17.70;63.00;;;;;;4871322;29;20080;-77
2020/12/17 08:50:10;;;;;;;8.00;2.45;;;17.70;63.00;;;;;;4864712;29;20427;-77
2020/12/17 08:52:37;;;;;;;5.53;2.40;;;17.70;62.90;;;;;;4864851;29;20463;-77
2020/12/17 08:55:09;;;;;;;5.40;2.13;;;17.70;62.80;;;;;;4873558;29;20056;-77
2020/12/17 08:57:38;;;;;;;5.18;2.35;;;17.70;62.60;;;;;;4864157;29;20370;-77
2020/12/17 09:00:24;;;;;;;5.10;2.10;;;17.70;62.50;;;;;;4868785;29;20481;-77
2020/12/17 09:02:58;;;;;;;4.60;2.33;;;17.70;62.40;;;;;;4868157;29;20180;-77
2020/12/17 09:06:03;;;;;;;3.97;1.95;;;17.80;62.30;;;;;;4873717;29;20050;-77
2020/12/17 09:08:30;;;;;;;3.20;2.05;;;17.80;62.20;;;;;;4867797;29;20057;-76
2020/12/17 09:10:57;;;;;;;3.70;2.38;;;17.70;62.10;;;;;;4866211;29;20049;-77
2020/12/17 09:13:24;;;;;;;6.75;2.40;;;17.70;62.10;;;;;;4867175;29;20049;-77
2020/12/17 09:16:01;;;;;;;5.03;2.08;;;17.80;62.00;;;;;;4860355;29;20478;-73
2020/12/17 09:18:29;;;;;;;9.50;2.83;;;17.80;62.10;;;;;;4860103;29;20174;-75
2020/12/17 09:21:11;;;;;;;7.05;2.50;;;17.80;62.20;;;;;;4863932;29;20466;-74
2020/12/17 09:23:40;;;;;;;5.05;2.00;;;17.80;62.20;;;;;;4862000;29;20105;-74
2020/12/17 09:26:16;;;;;;;5.63;2.30;;;17.80;62.30;;;;;;4862387;29;20077;-77
2020/12/17 09:29:03;;;;;;;7.88;2.45;;;17.80;62.40;;;;;;4875262;29;20124;-79
2020/12/17 09:31:49;;;;;;;9.13;2.78;;;17.80;62.40;;;;;;4863108;29;20140;-77
2020/12/17 09:34:17;;;;;;;3.65;2.40;;;17.80;62.50;;;;;;4864015;29;20046;-77
2020/12/17 09:36:55;;;;;;;8.63;2.45;;;17.80;62.40;;;;;;4864886;29;20132;-77
2020/12/17 09:39:21;;;;;;;7.32;3.00;;;17.80;62.50;;;;;;4863824;29;20527;-77
2020/12/17 09:41:55;;;;;;;6.65;2.30;;;17.80;62.50;;;;;;4861525;29;20392;-78
2020/12/17 09:44:33;;;;;;;4.95;2.13;;;17.80;62.40;;;;;;4858229;29;20117;-76
2020/12/17 09:47:34;;;;;;;6.20;2.67;;;17.80;62.40;;;;;;4874248;29;20053;-79
2020/12/17 09:50:20;;;;;;;9.55;2.58;;;17.80;62.50;;;;;;4874689;29;20466;-77
2020/12/17 09:52:45;;;;;;;8.73;2.53;;;17.80;62.40;;;;;;4860464;29;20124;-77
2020/12/17 09:55:31;;;;;;;8.18;2.92;;;17.80;62.40;;;;;;4858975;29;20057;-78
2020/12/17 09:58:00;;;;;;;5.00;2.30;;;17.80;62.50;;;;;;4862870;29;20490;-80
2020/12/17 10:00:26;;;;;;;6.40;2.03;;;17.80;62.50;;;;;;4861626;29;20068;-77
2020/12/17 10:03:12;;;;;;;9.40;3.38;;;17.80;62.50;;;;;;4874041;29;20045;-77
2020/12/17 10:05:58;;;;;;;5.43;2.20;;;17.80;62.40;;;;;;4870951;29;20054;-78
2020/12/17 10:08:24;;;;;;;9.90;2.13;;;17.80;62.30;;;;;;4859493;29;20072;-80
2020/12/17 10:10:50;;;;;;;6.97;2.08;;;17.80;62.30;;;;;;4861703;29;20061;-77
2020/12/17 10:13:36;;;;;;;5.70;2.10;;;17.80;62.30;;;;;;4872374;29;20481;-77
2020/12/17 10:16:22;;;;;;;8.90;2.00;;;17.80;62.20;;;;;;4874068;29;20050;-77
2020/12/17 10:18:48;;;;;;;8.30;1.73;;;17.90;62.30;;;;;;4859210;29;20057;-77
2020/12/17 10:21:35;;;;;;;5.70;1.85;;;17.80;62.20;;;;;;4833912;29;20060;-77
2020/12/17 10:24:20;;;;;;;12.80;1.77;;;17.90;62.40;;;;;;4857755;29;20406;-75
2020/12/17 10:26:46;;;;;;;8.05;1.90;;;17.90;62.30;;;;;;4850123;29;20045;-74
2020/12/17 10:29:12;;;;;;;5.80;1.45;;;17.90;62.60;;;;;;4848695;29;20042;-74
2020/12/17 10:31:58;;;;;;;6.63;1.83;;;17.90;62.50;;;;;;4846848;29;20592;-75
2020/12/17 10:34:24;;;;;;;8.48;1.65;;;17.90;62.50;;;;;;4861921;29;20076;-73
2020/12/17 10:36:50;;;;;;;4.18;1.63;;;17.90;62.40;;;;;;4850788;29;20059;-74
2020/12/17 10:39:35;;;;;;;11.98;1.55;;;17.90;62.40;;;;;;4846017;29;20110;-75
2020/12/17 10:42:03;;;;;;;8.60;1.95;;;17.90;62.40;;;;;;4844980;29;20090;-74
2020/12/17 10:44:29;;;;;;;6.03;1.50;;;17.90;62.30;;;;;;4851015;29;20049;-75
2020/12/17 10:46:56;;;;;;;6.30;2.00;;;17.90;62.30;;;;;;4862391;29;20485;-74
2020/12/17 10:49:22;;;;;;;5.68;1.90;;;18.00;62.30;;;;;;4846006;29;20515;-74
2020/12/17 10:52:09;;;;;;;6.90;1.83;;;18.00;62.30;;;;;;4842359;29;20057;-74
2020/12/17 10:54:35;;;;;;;6.03;1.60;;;18.00;62.20;;;;;;4861368;29;20352;-75
2020/12/17 10:57:02;;;;;;;4.47;1.90;;;18.00;62.20;;;;;;4862096;29;20049;-74
2020/12/17 10:59:49;;;;;;;8.05;2.03;;;18.00;62.30;;;;;;4861996;29;20080;-78
2020/12/17 11:02:35;;;;;;;8.45;1.80;;;18.00;62.20;;;;;;4853591;29;20081;-73
2020/12/17 11:05:01;;;;;;;6.72;1.50;;;18.00;62.20;;;;;;4844537;29;20061;-77
2020/12/17 11:07:28;;;;;;;7.10;1.90;;;18.00;62.20;;;;;;4857692;29;20049;-74
2020/12/17 11:10:14;;;;;;;4.18;1.55;;;18.00;62.30;;;;;;4859204;29;20053;-75
2020/12/17 11:12:40;;;;;;;6.35;2.28;;;18.00;62.30;;;;;;4859476;29;20058;-74
2020/12/17 11:15:26;;;;;;;4.65;1.98;;;18.00;62.30;;;;;;4861185;29;20209;-74
2020/12/17 11:17:51;;;;;;;4.60;1.70;;;18.00;62.30;;;;;;4853983;29;20128;-74
2020/12/17 11:20:18;;;;;;;4.28;1.98;;;18.00;62.30;;;;;;4855628;29;20060;-74
2020/12/17 11:22:45;;;;;;;5.57;2.20;;;18.10;62.50;;;;;;4859611;29;20416;-77
2020/12/17 11:25:36;;;;;;;9.60;2.30;;;18.00;62.60;;;;;;4872824;29;20194;-77
2020/12/17 11:28:04;;;;;;;8.77;2.22;;;18.00;62.70;;;;;;4857520;29;20057;-75
2020/12/17 11:30:30;;;;;;;8.88;2.97;;;18.00;62.70;;;;;;4867924;29;20112;-75
2020/12/17 11:32:56;;;;;;;4.32;2.42;;;18.00;63.40;;;;;;4863232;29;20451;-76
2020/12/17 11:35:24;;;;;;;3.42;2.05;;;18.00;63.00;;;;;;4875952;29;20044;-75
2020/12/17 11:37:50;;;;;;;6.25;2.60;;;18.00;63.00;;;;;;4861425;29;20145;-75
2020/12/17 11:40:21;;;;;;;4.25;1.90;;;18.00;63.00;;;;;;4861554;29;20049;-76
2020/12/17 11:42:47;;;;;;;8.15;2.53;;;18.00;63.00;;;;;;4859956;29;20077;-76
2020/12/17 11:45:33;;;;;;;11.15;2.67;;;18.00;63.10;;;;;;4853032;29;20093;-76
2020/12/17 11:47:59;;;;;;;6.22;2.42;;;18.00;63.10;;;;;;4861441;29;20132;-75
2020/12/17 11:50:24;;;;;;;3.60;1.80;;;18.00;63.00;;;;;;4862588;29;20366;-75
2020/12/17 11:52:52;;;;;;;4.35;2.17;;;18.00;63.10;;;;;;4860830;29;20045;-77
2020/12/17 11:55:18;;;;;;;4.45;1.98;;;18.00;63.00;;;;;;4869323;29;20068;-76
2020/12/17 11:58:04;;;;;;;10.10;2.25;;;18.00;63.00;;;;;;4860610;29;20057;-75
2020/12/17 12:00:30;;;;;;;5.15;2.05;;;18.00;63.10;;;;;;4869063;29;20077;-75
2020/12/17 12:02:56;;;;;;;9.40;2.05;;;18.00;63.10;;;;;;4862677;29;20069;-78
2020/12/17 12:05:42;;;;;;;7.63;4.05;;;18.00;63.20;;;;;;4874779;29;20057;-73
2020/12/17 12:08:08;;;;;;;7.75;3.20;;;18.00;62.70;;;;;;4860817;29;20137;-74
2020/12/17 12:10:33;;;;;;;10.20;3.50;;;17.90;62.60;;;;;;4861364;29;20462;-76
2020/12/17 12:13:19;;;;;;;17.50;5.03;;;17.90;62.70;;;;;;4860391;29;20046;-75
2020/12/17 12:16:05;;;;;;;18.65;4.53;;;17.90;62.90;;;;;;4862221;29;20061;-78
2020/12/17 12:18:51;;;;;;;15.80;3.88;;;17.90;62.90;;;;;;4861246;29;20057;-77
2020/12/17 12:21:17;;;;;;;18.52;3.30;;;17.80;62.80;;;;;;4861782;29;20053;-78
2020/12/17 12:24:03;;;;;;;12.48;3.58;;;17.80;62.80;;;;;;4843044;29;20492;-78
2020/12/17 12:26:29;;;;;;;11.98;2.80;;;17.80;62.70;;;;;;4856924;29;20145;-77
2020/12/17 12:29:15;;;;;;;6.15;2.63;;;17.80;62.70;;;;;;4885822;29;20066;-78
2020/12/17 12:31:41;;;;;;;8.45;2.42;;;17.80;62.80;;;;;;4880989;29;20053;-79
2020/12/17 12:34:06;;;;;;;7.90;3.17;;;17.80;62.80;;;;;;4884281;29;20120;-79
2020/12/17 12:36:32;;;;;;;5.40;2.28;;;17.70;62.80;;;;;;4882664;29;20041;-78
2020/12/17 12:38:58;;;;;;;7.07;2.53;;;17.70;62.80;;;;;;4884383;29;20076;-78
2020/12/17 12:41:24;;;;;;;4.50;2.42;;;17.70;62.90;;;;;;4883972;29;20438;-80
2020/12/17 12:43:49;;;;;;;8.32;2.10;;;17.70;62.80;;;;;;4884123;29;20087;-79
2020/12/17 12:46:18;;;;;;;5.45;2.10;;;17.70;62.80;;;;;;4884174;29;20045;-79
2020/12/17 12:48:45;;;;;;;4.22;2.20;;;17.70;62.80;;;;;;4866749;29;20132;-79
2020/12/17 12:51:11;;;;;;;8.73;2.22;;;17.60;62.80;;;;;;4865609;29;20053;-80
2020/12/17 12:53:37;;;;;;;8.13;1.88;;;17.70;63.00;;;;;;4865613;29;20045;-79
2020/12/17 12:56:03;;;;;;;4.63;2.45;;;17.60;62.90;;;;;;4871366;29;20053;-80
2020/12/17 12:58:48;;;;;;;8.20;2.28;;;17.60;63.00;;;;;;4877588;29;20057;-78
2020/12/17 13:01:15;;;;;;;4.43;1.77;;;17.60;63.10;;;;;;4866091;29;20049;-79
2020/12/17 13:04:00;;;;;;;7.55;1.92;;;17.60;63.10;;;;;;4859022;29;20114;-78
2020/12/17 13:06:26;;;;;;;7.78;2.33;;;17.50;63.20;;;;;;4846837;29;20054;-78
2020/12/17 13:08:52;;;;;;;7.03;1.80;;;17.60;63.30;;;;;;4846874;29;20073;-78
2020/12/17 13:11:19;;;;;;;7.35;2.13;;;17.50;63.20;;;;;;4846564;29;20048;-79
2020/12/17 13:13:45;;;;;;;7.25;1.60;;;17.50;63.30;;;;;;4846836;29;20050;-78